createdAt,value
2022-11-09T00:02:14.021Z,34.60
2022-11-09T00:05:03.582Z,34.45
2022-11-09T00:07:52.623Z,35.75
2022-11-09T00:10:41.915Z,34.67
2022-11-09T00:13:31.048Z,37.05
2022-11-09T00:16:24.232Z,33.83
2022-11-09T00:19:14.130Z,36.90
2022-11-09T00:22:03.090Z,36.28
2022-11-09T00:24:54.037Z,36.13
2022-11-09T00:27:43.697Z,34.13
2022-11-09T00:30:33.220Z,37.60
2022-11-09T00:33:24.022Z,35.15
2022-11-09T00:36:14.552Z,36.50
2022-11-09T00:39:03.547Z,37.38
2022-11-09T00:41:53.068Z,37.13
2022-11-09T00:44:42.106Z,39.88
2022-11-09T00:47:30.848Z,40.13
2022-11-09T00:50:39.844Z,39.25
2022-11-09T00:56:36.705Z,36.25
2022-11-09T00:59:25.895Z,38.42
2022-11-09T01:02:15.139Z,39.15
2022-11-09T01:05:05.087Z,35.63
2022-11-09T01:07:55.576Z,36.65
2022-11-09T01:10:46.022Z,36.05
2022-11-09T01:13:35.776Z,36.67
2022-11-09T01:16:25.586Z,35.92
2022-11-09T01:19:14.826Z,35.20
2022-11-09T01:22:03.804Z,34.65
2022-11-09T01:24:54.625Z,35.63
2022-11-09T01:27:43.700Z,37.47
2022-11-09T01:30:32.375Z,36.67
2022-11-09T01:33:21.818Z,34.05
2022-11-09T01:36:12.979Z,37.05
2022-11-09T01:39:02.636Z,38.78
2022-11-09T01:41:53.199Z,36.05
2022-11-09T01:44:42.354Z,35.65
2022-11-09T01:47:32.354Z,36.05
2022-11-09T01:50:33.672Z,35.70
2022-11-09T01:53:25.735Z,39.88
2022-11-09T01:56:16.307Z,36.45
2022-11-09T01:59:11.141Z,34.70
2022-11-09T02:02:01.252Z,35.60
2022-11-09T02:04:55.984Z,35.50
2022-11-09T02:07:47.136Z,33.28
2022-11-09T02:10:42.080Z,36.42
2022-11-09T02:13:32.419Z,36.63
2022-11-09T02:16:24.846Z,35.42
2022-11-09T02:19:14.569Z,36.50
2022-11-09T02:22:05.484Z,34.90
2022-11-09T02:24:56.477Z,33.65
2022-11-09T02:27:46.898Z,34.30
2022-11-09T02:30:37.295Z,33.72
2022-11-09T02:33:26.954Z,33.47
2022-11-09T02:36:16.298Z,34.65
2022-11-09T02:39:07.882Z,34.90
2022-11-09T02:42:03.195Z,33.72
2022-11-09T02:44:58.016Z,35.42
2022-11-09T02:47:47.559Z,35.47
2022-11-09T02:50:37.566Z,35.05
2022-11-09T02:53:27.347Z,34.60
2022-11-09T02:56:19.505Z,33.80
2022-11-09T02:59:08.889Z,32.60
2022-11-09T03:01:58.237Z,33.33
2022-11-09T03:04:47.221Z,33.35
2022-11-09T03:07:36.045Z,34.30
2022-11-09T03:10:24.978Z,34.42
2022-11-09T03:13:17.035Z,33.95
2022-11-09T03:16:07.641Z,34.97
2022-11-09T03:18:58.294Z,33.00
2022-11-09T03:21:46.802Z,36.90
2022-11-09T03:24:36.039Z,36.65
2022-11-09T03:27:25.024Z,34.95
2022-11-09T03:30:15.661Z,35.92
2022-11-09T03:33:10.327Z,38.75
2022-11-09T03:35:59.568Z,36.55
2022-11-09T03:38:48.937Z,38.67
2022-11-09T03:41:39.091Z,35.92
2022-11-09T03:44:28.198Z,38.15
2022-11-09T03:47:18.825Z,35.65
2022-11-09T03:50:09.731Z,38.05
2022-11-09T03:52:58.950Z,35.70
2022-11-09T03:55:48.167Z,37.63
2022-11-09T03:58:37.077Z,36.83
2022-11-09T04:01:26.103Z,37.58
2022-11-09T04:04:16.900Z,34.42
2022-11-09T04:07:06.061Z,37.92
2022-11-09T04:09:55.726Z,35.60
2022-11-09T04:12:45.210Z,36.83
2022-11-09T04:15:34.762Z,35.95
2022-11-09T04:18:23.471Z,37.72
2022-11-09T04:21:13.986Z,36.05
2022-11-09T04:24:03.200Z,37.08
2022-11-09T04:26:52.568Z,37.60
2022-11-09T04:29:41.767Z,35.65
2022-11-09T04:32:30.906Z,39.17
2022-11-09T04:35:19.993Z,36.70
2022-11-09T04:38:14.151Z,37.28
2022-11-09T04:41:04.484Z,36.75
2022-11-09T04:43:53.736Z,35.80
2022-11-09T04:46:43.009Z,36.10
2022-11-09T04:49:32.010Z,36.85
2022-11-09T04:52:21.607Z,37.70
2022-11-09T04:55:12.724Z,36.90
2022-11-09T04:58:01.946Z,37.75
2022-11-09T05:00:51.196Z,37.33
2022-11-09T05:03:40.764Z,37.70
2022-11-09T05:06:36.588Z,36.42
2022-11-09T05:09:26.027Z,37.25
2022-11-09T05:12:16.819Z,36.70
2022-11-09T05:15:07.270Z,37.78
2022-11-09T05:17:57.002Z,35.55
2022-11-09T05:23:37.701Z,35.72
2022-11-09T05:26:27.831Z,34.55
2022-11-09T05:29:18.606Z,36.80
2022-11-09T05:32:07.954Z,37.17
2022-11-09T05:34:57.504Z,36.85
2022-11-09T05:37:48.854Z,35.30
2022-11-09T05:40:37.476Z,36.33
2022-11-09T05:43:26.535Z,35.88
2022-11-09T05:46:18.198Z,35.50
2022-11-09T05:49:07.369Z,37.08
2022-11-09T05:51:57.002Z,37.03
2022-11-09T05:54:46.497Z,36.80
2022-11-09T05:57:36.201Z,36.42
2022-11-09T06:00:25.839Z,37.13
2022-11-09T06:03:16.630Z,36.85
2022-11-09T06:06:08.853Z,38.35
2022-11-09T06:08:58.672Z,36.22
2022-11-09T06:11:48.206Z,36.22
2022-11-09T06:14:37.324Z,37.03
2022-11-09T06:17:26.178Z,37.47
2022-11-09T06:20:18.050Z,36.20
2022-11-09T06:23:06.675Z,36.22
2022-11-09T06:25:58.675Z,39.25
2022-11-09T06:28:47.713Z,37.78
2022-11-09T06:31:37.160Z,37.72
2022-11-09T06:34:26.814Z,36.65
2022-11-09T06:37:18.580Z,37.60
2022-11-09T06:40:08.139Z,39.47
2022-11-09T06:42:59.567Z,37.13
2022-11-09T06:45:49.206Z,34.97
2022-11-09T06:48:38.748Z,35.03
2022-11-09T06:51:28.201Z,37.80
2022-11-09T06:54:19.545Z,38.17
2022-11-09T06:57:09.176Z,37.03
2022-11-09T07:00:00.311Z,37.30
2022-11-09T07:02:49.723Z,37.25
2022-11-09T07:05:40.488Z,36.92
2022-11-09T07:08:30.046Z,38.78
2022-11-09T07:11:21.177Z,39.95
2022-11-09T07:14:10.945Z,38.60
2022-11-09T07:17:00.042Z,38.45
2022-11-09T07:19:50.100Z,38.75
2022-11-09T07:22:40.278Z,39.88
2022-11-09T07:25:29.706Z,38.03
2022-11-09T07:28:20.267Z,35.95
2022-11-09T07:31:10.973Z,37.85
2022-11-09T07:34:04.748Z,39.47
2022-11-09T07:36:55.538Z,40.72
2022-11-09T07:39:45.207Z,38.00
2022-11-09T07:42:34.936Z,37.40
2022-11-09T07:45:26.343Z,38.70
2022-11-09T07:48:16.145Z,38.30
2022-11-09T07:51:05.861Z,38.95
2022-11-09T07:53:55.201Z,38.58
2022-11-09T07:56:44.559Z,38.63
2022-11-09T07:59:33.981Z,37.80
2022-11-09T08:02:25.515Z,36.45
2022-11-09T08:05:15.191Z,36.10
2022-11-09T08:08:06.221Z,37.45
2022-11-09T08:10:57.796Z,36.92
2022-11-09T08:13:47.509Z,36.40
2022-11-09T08:16:37.986Z,35.53
2022-11-09T08:19:29.118Z,37.95
2022-11-09T08:22:18.765Z,34.40
2022-11-09T08:25:08.937Z,30.65
2022-11-09T08:27:58.443Z,32.00
2022-11-09T08:30:48.129Z,33.95
2022-11-09T08:33:38.774Z,33.65
2022-11-09T08:36:30.004Z,30.85
2022-11-09T08:39:19.082Z,32.33
2022-11-09T08:42:08.477Z,32.58
2022-11-09T08:44:58.534Z,30.83
2022-11-09T08:47:48.022Z,28.73
2022-11-09T08:50:38.705Z,31.63
2022-11-09T08:53:31.249Z,30.48
2022-11-09T08:56:20.302Z,27.92
2022-11-09T08:59:09.766Z,29.33
2022-11-09T09:01:59.543Z,28.92
2022-11-09T09:04:48.666Z,30.52
2022-11-09T09:07:37.746Z,30.80
2022-11-09T09:10:29.182Z,30.55
2022-11-09T09:13:19.675Z,30.50
2022-11-09T09:16:13.203Z,33.85
2022-11-09T09:19:02.427Z,29.65
2022-11-09T09:21:51.263Z,32.10
2022-11-09T09:24:40.255Z,30.40
2022-11-09T09:27:31.455Z,29.08
2022-11-09T09:30:21.190Z,30.52
2022-11-09T09:33:10.580Z,30.02
2022-11-09T09:36:00.374Z,33.33
2022-11-09T09:38:52.111Z,37.72
2022-11-09T09:41:44.126Z,38.15
2022-11-09T09:44:40.149Z,33.10
2022-11-09T09:47:42.146Z,33.90
2022-11-09T09:50:37.905Z,37.25
2022-11-09T09:53:34.125Z,36.72
2022-11-09T09:56:26.741Z,36.15
2022-11-09T09:59:22.329Z,35.63
2022-11-09T10:02:22.858Z,35.67
2022-11-09T10:05:16.407Z,38.35
2022-11-09T10:08:10.476Z,36.85
2022-11-09T10:11:11.029Z,39.03
2022-11-09T10:14:17.307Z,38.13
2022-11-09T10:17:16.092Z,36.63
2022-11-09T10:20:19.295Z,38.42
2022-11-09T10:23:28.705Z,35.85
2022-11-09T10:26:21.675Z,37.63
2022-11-09T10:29:24.381Z,38.65
2022-11-09T10:32:17.991Z,36.83
2022-11-09T10:35:18.496Z,38.72
2022-11-09T10:38:14.732Z,37.95
2022-11-09T10:41:12.386Z,38.65
2022-11-09T10:44:01.715Z,37.72
2022-11-09T10:47:05.271Z,41.70
2022-11-09T10:50:24.582Z,39.35
2022-11-09T10:53:17.105Z,39.40
2022-11-09T10:56:20.717Z,40.72
2022-11-09T10:59:37.633Z,39.13
2022-11-09T11:02:47.668Z,42.55
2022-11-09T11:05:40.059Z,42.40
2022-11-09T11:08:33.032Z,42.70
2022-11-09T11:11:33.795Z,41.92
2022-11-09T11:14:30.837Z,38.75
2022-11-09T11:17:23.835Z,40.15
2022-11-09T11:20:31.241Z,38.83
2022-11-09T14:04:28.559Z,43.28
2022-11-09T14:07:23.518Z,41.25
2022-11-09T14:10:22.637Z,42.03
2022-11-09T14:13:25.678Z,41.17
2022-11-09T14:16:26.152Z,41.40
2022-11-09T14:19:33.372Z,41.03
2022-11-09T14:22:22.474Z,39.33
2022-11-09T14:25:16.671Z,38.58
2022-11-09T14:28:23.119Z,36.70
2022-11-09T14:31:24.532Z,30.90
2022-11-09T14:34:17.931Z,29.77
2022-11-09T14:37:09.209Z,25.98
2022-11-09T14:39:59.429Z,23.65
2022-11-09T14:42:52.550Z,23.60
2022-11-09T14:45:50.758Z,24.65
2022-11-09T14:48:44.854Z,24.02
2022-11-09T14:51:38.303Z,23.83
2022-11-09T14:54:29.709Z,24.02
2022-11-09T14:57:19.435Z,24.75
2022-11-09T15:00:24.509Z,27.92
2022-11-09T15:03:27.984Z,26.52
2022-11-09T15:06:19.872Z,25.63
2022-11-09T15:09:10.979Z,25.77
2022-11-09T15:12:01.828Z,26.05
2022-11-09T15:14:52.379Z,19.90
2022-11-09T15:17:47.281Z,24.13
2022-11-09T15:20:36.368Z,26.98
2022-11-09T15:23:38.747Z,25.90
2022-11-09T15:26:34.878Z,26.90
2022-11-09T15:29:39.140Z,26.83
2022-11-09T15:32:28.120Z,28.33
2022-11-09T15:35:19.175Z,25.17
2022-11-09T15:38:27.772Z,28.70
2022-11-09T15:41:19.607Z,27.10
2022-11-09T15:44:09.740Z,27.27
2022-11-09T15:47:00.620Z,28.45
2022-11-09T15:49:50.207Z,29.08
2022-11-09T15:52:40.008Z,29.13
2022-11-09T15:55:29.782Z,27.13
2022-11-09T15:58:20.421Z,31.02
2022-11-09T16:01:11.698Z,28.67
2022-11-09T16:04:03.491Z,27.50
2022-11-09T16:06:52.783Z,28.05
2022-11-09T16:09:43.066Z,31.42
2022-11-09T16:12:32.275Z,29.17
2022-11-09T16:15:21.800Z,29.42
2022-11-09T16:18:10.886Z,29.10
2022-11-09T16:21:09.294Z,28.88
2022-11-09T16:23:59.007Z,27.48
2022-11-09T16:26:48.594Z,27.83
2022-11-09T16:29:37.923Z,29.38
2022-11-09T16:32:26.455Z,27.30
2022-11-09T16:35:26.513Z,26.35
2022-11-09T16:38:17.807Z,28.17
2022-11-09T16:41:08.711Z,28.00
2022-11-09T16:43:59.222Z,27.73
2022-11-09T16:46:49.082Z,26.90
2022-11-09T16:49:38.842Z,26.65
2022-11-09T16:52:27.707Z,25.92
2022-11-09T16:55:18.999Z,27.40
2022-11-09T16:58:08.539Z,26.65
2022-11-09T17:01:10.590Z,27.08
2022-11-09T17:04:01.476Z,26.90
2022-11-09T17:06:51.268Z,28.35
2022-11-09T17:09:40.645Z,28.48
2022-11-09T17:12:33.171Z,27.98
2022-11-09T17:15:22.802Z,27.90
2022-11-09T17:18:11.664Z,27.67
2022-11-09T17:21:01.517Z,28.70
2022-11-09T17:23:52.324Z,27.40
2022-11-09T17:26:41.187Z,27.63
2022-11-09T17:29:32.416Z,28.55
2022-11-09T17:32:26.127Z,27.58
2022-11-09T17:35:15.524Z,28.65
2022-11-09T17:38:04.431Z,27.25
2022-11-09T17:40:54.538Z,27.20
2022-11-09T17:43:45.714Z,29.25
2022-11-09T17:46:36.206Z,29.55
2022-11-09T17:49:25.581Z,29.05
2022-11-09T17:52:15.116Z,27.88
2022-11-09T17:55:03.800Z,28.75
2022-11-09T17:57:53.125Z,28.13
2022-11-09T18:00:42.057Z,28.65
2022-11-09T18:03:34.698Z,28.67
2022-11-09T18:06:25.654Z,31.05
2022-11-09T18:12:24.688Z,30.27
2022-11-09T18:15:14.113Z,29.42
2022-11-09T18:18:03.613Z,31.02
2022-11-09T18:20:54.213Z,29.15
2022-11-09T18:23:43.988Z,27.50
2022-11-09T18:26:33.451Z,29.67
2022-11-09T18:29:23.210Z,30.05
2022-11-09T18:32:12.545Z,30.88
2022-11-09T18:35:01.357Z,29.15
2022-11-09T18:37:52.156Z,28.08
2022-11-09T18:40:41.325Z,30.30
2022-11-09T18:43:31.472Z,28.42
2022-11-09T18:46:23.963Z,29.35
2022-11-09T18:49:14.384Z,28.60
2022-11-09T18:52:04.268Z,31.95
2022-11-09T18:54:56.928Z,27.98
2022-11-09T18:57:46.265Z,28.00
2022-11-09T19:00:35.493Z,27.42
2022-11-09T19:03:25.542Z,28.02
2022-11-09T19:06:16.515Z,29.60
2022-11-09T19:09:22.870Z,30.85
2022-11-09T19:12:13.445Z,28.90
2022-11-09T19:15:02.928Z,29.90
2022-11-09T19:17:52.035Z,30.02
2022-11-09T19:20:41.745Z,28.23
2022-11-09T19:23:34.396Z,28.38
2022-11-09T19:26:24.654Z,28.00
2022-11-09T19:29:15.882Z,28.50
2022-11-09T19:32:05.359Z,30.58
2022-11-09T19:34:54.399Z,30.00
2022-11-09T19:37:43.108Z,29.90
2022-11-09T19:40:39.320Z,28.50
2022-11-09T19:43:28.876Z,31.35
2022-11-09T19:46:19.863Z,29.58
2022-11-09T19:49:10.203Z,28.52
2022-11-09T19:51:59.538Z,28.15
2022-11-09T19:54:48.842Z,28.42
2022-11-09T19:57:37.952Z,32.85
2022-11-09T20:00:27.604Z,35.05
2022-11-09T20:23:05.731Z,30.55
2022-11-09T20:25:55.369Z,29.30
2022-11-09T20:28:43.892Z,35.72
2022-11-09T20:31:33.151Z,38.22
2022-11-09T20:34:22.697Z,33.28
2022-11-09T20:37:11.535Z,35.03
2022-11-09T20:40:02.480Z,35.63
2022-11-09T20:42:51.825Z,33.88
2022-11-09T20:45:40.904Z,33.05
2022-11-09T20:48:52.917Z,34.47
2022-11-09T20:51:40.307Z,33.10
2022-11-09T20:54:29.925Z,32.15
2022-11-09T20:57:21.899Z,33.40
2022-11-09T21:00:12.043Z,33.38
2022-11-09T21:03:01.404Z,33.65
2022-11-09T21:05:54.281Z,33.78
2022-11-09T21:08:46.197Z,33.58
2022-11-09T21:11:58.218Z,33.58
2022-11-09T21:14:48.678Z,33.22
2022-11-09T21:17:37.995Z,35.70
2022-11-09T21:20:27.174Z,34.80
2022-11-09T21:23:33.850Z,32.50
2022-11-09T21:26:40.097Z,36.05
2022-11-09T21:29:47.038Z,34.05
2022-11-09T21:32:37.777Z,35.60
2022-11-09T21:35:28.731Z,36.08
2022-11-09T21:38:18.535Z,34.97
2022-11-09T21:41:22.769Z,37.00
2022-11-09T21:44:12.795Z,36.22
2022-11-09T21:47:02.083Z,34.65
2022-11-09T21:49:52.525Z,35.03
2022-11-09T21:52:42.086Z,36.03
2022-11-09T21:55:31.827Z,35.40
2022-11-09T21:58:21.043Z,34.55
2022-11-09T22:01:11.690Z,36.13
2022-11-09T22:04:01.086Z,36.83
2022-11-09T22:06:51.368Z,37.00
2022-11-09T22:10:08.408Z,34.72
2022-11-09T22:13:07.537Z,35.10
2022-11-09T22:16:09.410Z,35.22
2022-11-09T22:19:16.043Z,34.08
2022-11-09T22:22:07.311Z,33.72
2022-11-09T22:24:57.772Z,35.40
2022-11-09T22:27:47.019Z,34.03
2022-11-09T22:30:36.596Z,36.78
2022-11-09T22:33:27.442Z,34.17
2022-11-09T22:36:18.491Z,32.45
2022-11-09T22:39:09.351Z,33.03
2022-11-09T22:41:58.905Z,31.48
2022-11-09T22:44:48.505Z,32.42
2022-11-09T22:47:38.060Z,29.38
2022-11-09T22:50:27.101Z,30.90
2022-11-09T22:53:16.200Z,32.58
2022-11-09T22:56:07.181Z,31.42
2022-11-09T22:58:56.415Z,29.00
2022-11-09T23:01:46.472Z,30.35
2022-11-09T23:04:35.523Z,29.98
2022-11-09T23:07:24.718Z,30.33
2022-11-09T23:10:15.301Z,28.60
2022-11-09T23:13:06.389Z,29.23
2022-11-09T23:15:56.554Z,29.55
2022-11-09T23:18:58.041Z,30.95
2022-11-09T23:21:46.834Z,29.92
2022-11-09T23:24:53.627Z,28.35
2022-11-09T23:27:43.805Z,28.58
2022-11-09T23:30:34.476Z,28.55
2022-11-09T23:33:24.334Z,30.50
2022-11-09T23:36:14.099Z,29.20
2022-11-09T23:39:03.738Z,28.30
2022-11-09T23:41:53.312Z,29.23
2022-11-09T23:44:43.209Z,28.70
2022-11-09T23:47:34.240Z,27.70
2022-11-09T23:50:23.611Z,30.73
2022-11-09T23:53:13.197Z,28.38
2022-11-09T23:56:02.641Z,27.98
2022-11-09T23:58:52.455Z,29.88
